createdAt,value
2023-10-25T00:01:05.332Z,3.35
2023-10-25T00:03:31.852Z,3.58
2023-10-25T00:05:58.315Z,3.15
2023-10-25T00:08:24.704Z,3.38
2023-10-25T00:10:51.123Z,3.15
2023-10-25T00:13:17.521Z,3.17
2023-10-25T00:15:44.059Z,3.38
2023-10-25T00:18:10.506Z,3.30
2023-10-25T00:20:36.938Z,3.35
2023-10-25T00:23:03.342Z,3.67
2023-10-25T00:25:32.124Z,4.10
2023-10-25T00:27:58.594Z,4.15
2023-10-25T00:30:25.009Z,4.28
2023-10-25T00:32:51.440Z,4.03
2023-10-25T00:35:17.828Z,3.90
2023-10-25T00:37:44.255Z,4.43
2023-10-25T00:40:11.041Z,4.80
2023-10-25T00:42:37.441Z,4.65
2023-10-25T00:45:06.925Z,4.40
2023-10-25T00:47:33.399Z,4.43
2023-10-25T00:50:00.235Z,4.22
2023-10-25T00:52:26.799Z,4.47
2023-10-25T00:54:53.857Z,4.18
2023-10-25T00:57:20.400Z,3.67
2023-10-25T00:59:47.056Z,4.32
2023-10-25T01:02:13.707Z,4.43
2023-10-25T01:04:40.747Z,4.25
2023-10-25T01:07:07.576Z,3.90
2023-10-25T01:09:34.421Z,3.97
2023-10-25T01:12:00.852Z,4.10
2023-10-25T01:14:28.406Z,4.55
2023-10-25T01:16:55.011Z,4.00
2023-10-25T01:19:21.560Z,4.40
2023-10-25T01:21:47.950Z,5.03
2023-10-25T01:24:14.486Z,4.20
2023-10-25T01:26:41.567Z,4.00
2023-10-25T01:29:08.010Z,3.72
2023-10-25T01:31:34.427Z,4.15
2023-10-25T01:34:00.890Z,4.45
2023-10-25T01:36:27.276Z,4.43
2023-10-25T01:38:53.630Z,4.57
2023-10-25T01:41:20.051Z,4.47
2023-10-25T01:43:46.600Z,3.83
2023-10-25T01:46:13.029Z,3.97
2023-10-25T01:48:39.547Z,3.85
2023-10-25T01:51:06.299Z,4.05
2023-10-25T01:53:34.734Z,4.28
2023-10-25T01:58:27.885Z,3.63
2023-10-25T02:00:54.406Z,4.32
2023-10-25T02:03:20.875Z,4.28
2023-10-25T02:05:47.356Z,3.75
2023-10-25T02:08:13.753Z,3.92
2023-10-25T02:10:40.647Z,4.10
2023-10-25T02:13:07.121Z,4.32
2023-10-25T02:15:33.597Z,3.70
2023-10-25T02:18:00.015Z,3.97
2023-10-25T02:20:26.570Z,4.20
2023-10-25T02:22:52.955Z,4.25
2023-10-25T02:25:19.363Z,4.47
2023-10-25T02:27:45.862Z,4.20
2023-10-25T02:30:12.677Z,3.97
2023-10-25T02:32:39.161Z,4.63
2023-10-25T02:35:06.151Z,4.30
2023-10-25T02:37:32.559Z,4.43
2023-10-25T02:39:58.989Z,4.88
2023-10-25T02:42:25.393Z,4.47
2023-10-25T02:44:51.770Z,5.65
2023-10-25T02:47:20.136Z,4.55
2023-10-25T02:52:12.908Z,4.97
2023-10-25T02:54:39.455Z,4.30
2023-10-25T02:57:05.880Z,4.30
2023-10-25T02:59:32.260Z,4.60
2023-10-25T03:01:58.682Z,5.38
2023-10-25T03:04:25.154Z,5.40
2023-10-25T03:06:51.692Z,5.30
2023-10-25T03:09:18.151Z,5.70
2023-10-25T03:11:44.550Z,5.35
2023-10-25T03:14:11.014Z,4.60
2023-10-25T03:16:37.578Z,4.82
2023-10-25T03:19:04.176Z,4.93
2023-10-25T03:21:30.596Z,5.15
2023-10-25T03:23:57.091Z,5.10
2023-10-25T03:26:23.475Z,5.22
2023-10-25T03:28:51.606Z,4.78
2023-10-25T03:31:18.147Z,4.93
2023-10-25T03:33:45.606Z,4.60
2023-10-25T03:36:12.118Z,4.28
2023-10-25T03:38:38.535Z,5.00
2023-10-25T03:41:07.545Z,4.78
2023-10-25T03:43:36.841Z,4.57
2023-10-25T03:46:07.546Z,4.25
2023-10-25T03:48:34.628Z,4.47
2023-10-25T03:51:03.886Z,3.72
2023-10-25T03:53:30.313Z,5.28
2023-10-25T03:55:57.413Z,4.97
2023-10-25T03:58:24.811Z,4.93
2023-10-25T04:00:59.013Z,4.32
2023-10-25T04:03:25.636Z,5.07
2023-10-25T04:05:53.549Z,5.10
2023-10-25T04:08:19.995Z,4.07
2023-10-25T04:10:52.937Z,4.97
2023-10-25T04:13:20.244Z,5.28
2023-10-25T04:16:01.027Z,4.80
2023-10-25T04:18:30.058Z,5.72
2023-10-25T04:20:57.879Z,4.55
2023-10-25T04:23:28.927Z,5.53
2023-10-25T04:26:05.042Z,5.18
2023-10-25T04:28:31.489Z,5.03
2023-10-25T04:30:57.946Z,6.00
2023-10-25T04:33:24.326Z,6.53
2023-10-25T04:35:52.029Z,5.75
2023-10-25T04:38:18.586Z,5.63
2023-10-25T04:40:44.911Z,6.13
2023-10-25T04:43:11.310Z,5.05
2023-10-25T04:45:38.017Z,5.32
2023-10-25T04:48:04.820Z,6.15
2023-10-25T04:50:31.315Z,6.45
2023-10-25T04:52:57.676Z,5.85
2023-10-25T04:55:24.204Z,6.30
2023-10-25T04:57:50.761Z,4.70
2023-10-25T05:00:20.793Z,6.95
2023-10-25T05:02:47.198Z,6.40
2023-10-25T05:05:13.682Z,5.28
2023-10-25T05:07:40.347Z,6.43
2023-10-25T05:10:10.836Z,6.47
2023-10-25T05:12:48.303Z,6.50
2023-10-25T05:15:17.427Z,7.00
2023-10-25T05:17:45.876Z,6.68
2023-10-25T05:22:42.246Z,7.53
2023-10-25T05:25:10.599Z,7.50
2023-10-25T05:30:05.813Z,6.07
2023-10-25T05:32:33.321Z,5.88
2023-10-25T05:35:01.358Z,7.50
2023-10-25T05:37:28.911Z,7.03
2023-10-25T05:39:55.754Z,6.55
2023-10-25T05:42:23.165Z,3.50
2023-10-25T05:44:49.926Z,3.97
2023-10-25T05:47:16.341Z,7.15
2023-10-25T05:49:43.275Z,6.00
2023-10-25T05:52:10.810Z,7.15
2023-10-25T05:54:38.209Z,6.07
2023-10-25T05:57:05.516Z,7.00
2023-10-25T05:59:32.208Z,8.07
2023-10-25T06:02:16.108Z,8.40
2023-10-25T06:04:44.203Z,7.13
2023-10-25T06:07:12.230Z,7.93
2023-10-25T06:09:39.686Z,6.17
2023-10-25T06:12:07.429Z,7.87
2023-10-25T06:14:33.803Z,7.28
2023-10-25T06:17:03.056Z,6.32
2023-10-25T06:19:29.715Z,7.78
2023-10-25T06:21:56.327Z,6.53
2023-10-25T06:24:22.813Z,7.72
2023-10-25T06:26:49.311Z,6.07
2023-10-25T06:29:17.480Z,6.55
2023-10-25T06:31:43.924Z,6.45
2023-10-25T06:34:12.397Z,6.50
2023-10-25T06:36:39.253Z,4.88
2023-10-25T06:39:07.831Z,6.10
2023-10-25T06:41:36.694Z,6.47
2023-10-25T06:44:03.913Z,5.80
2023-10-25T06:46:30.749Z,6.20
2023-10-25T06:48:57.874Z,5.80
2023-10-25T06:51:24.732Z,6.05
2023-10-25T06:53:51.562Z,5.75
2023-10-25T06:56:18.113Z,5.85
2023-10-25T06:58:44.971Z,5.07
2023-10-25T07:01:13.387Z,4.20
2023-10-25T07:06:12.889Z,5.25
2023-10-25T07:08:39.433Z,4.13
2023-10-25T07:11:06.296Z,5.07
2023-10-25T07:13:32.697Z,4.78
2023-10-25T07:15:59.244Z,5.32
2023-10-25T07:18:26.197Z,5.13
2023-10-25T07:20:52.597Z,5.43
2023-10-25T07:23:18.923Z,5.20
2023-10-25T07:25:45.532Z,5.10
2023-10-25T07:28:14.784Z,5.13
2023-10-25T07:30:41.297Z,4.95
2023-10-25T07:33:08.436Z,4.75
2023-10-25T07:35:36.005Z,4.70
2023-10-25T07:38:02.422Z,5.80
2023-10-25T07:40:29.001Z,5.13
2023-10-25T07:42:55.387Z,5.50
2023-10-25T07:45:21.796Z,5.35
2023-10-25T07:47:48.721Z,4.85
2023-10-25T07:50:15.145Z,4.72
2023-10-25T07:52:41.531Z,4.90
2023-10-25T07:55:37.266Z,4.88
2023-10-25T08:00:23.955Z,4.82
2023-10-25T08:02:50.499Z,4.85
2023-10-25T08:05:17.082Z,4.93
2023-10-25T08:07:43.462Z,5.00
2023-10-25T08:10:10.179Z,5.30
2023-10-25T08:12:36.769Z,4.68
2023-10-25T08:15:05.764Z,5.07
2023-10-25T08:17:32.395Z,5.20
2023-10-25T08:19:58.772Z,5.25
2023-10-25T08:22:25.167Z,5.22
2023-10-25T08:24:51.656Z,5.32
2023-10-25T08:27:19.096Z,5.45
2023-10-25T08:29:45.535Z,5.28
2023-10-25T08:32:11.956Z,4.88
2023-10-25T08:34:38.301Z,5.32
2023-10-25T08:37:04.696Z,5.35
2023-10-25T08:39:31.046Z,5.60
2023-10-25T08:41:58.157Z,5.68
2023-10-25T08:44:25.661Z,5.38
2023-10-25T08:46:53.059Z,5.37
2023-10-25T08:49:22.253Z,5.35
2023-10-25T08:51:48.636Z,4.88
2023-10-25T08:54:15.356Z,4.97
2023-10-25T08:56:45.326Z,5.10
2023-10-25T08:59:11.766Z,5.03
2023-10-25T09:01:38.155Z,5.70
2023-10-25T09:04:07.805Z,5.90
2023-10-25T09:06:34.333Z,5.25
2023-10-25T09:09:03.439Z,4.93
2023-10-25T09:11:40.564Z,5.43
2023-10-25T09:14:07.194Z,5.18
2023-10-25T09:16:34.374Z,4.80
2023-10-25T09:19:03.498Z,4.30
2023-10-25T09:21:29.962Z,5.38
2023-10-25T09:23:57.865Z,6.50
2023-10-25T09:26:24.295Z,6.20
2023-10-25T09:28:54.126Z,5.30
2023-10-25T09:31:25.353Z,5.80
2023-10-25T09:33:51.856Z,5.40
2023-10-25T09:36:20.026Z,6.00
2023-10-25T09:38:46.949Z,6.30
2023-10-25T09:41:15.275Z,5.63
2023-10-25T09:43:49.528Z,5.88
2023-10-25T09:46:23.042Z,6.13
2023-10-25T09:49:03.496Z,5.07
2023-10-25T09:51:47.569Z,5.53
2023-10-25T09:54:14.721Z,4.95
2023-10-25T09:56:43.115Z,13.23
2023-10-25T10:01:36.779Z,6.03
2023-10-25T10:04:15.540Z,5.72
2023-10-25T10:07:03.153Z,6.50
2023-10-25T10:09:38.755Z,5.00
2023-10-25T10:12:09.531Z,4.68
2023-10-25T10:14:37.820Z,4.32
2023-10-25T10:19:39.308Z,4.55
2023-10-25T10:22:16.184Z,4.72
2023-10-25T10:24:52.873Z,4.45
2023-10-25T10:27:41.588Z,4.20
2023-10-25T10:30:39.518Z,4.70
2023-10-25T10:33:14.773Z,4.55
2023-10-25T10:35:50.459Z,5.28
2023-10-25T10:38:17.112Z,5.63
2023-10-25T10:40:43.687Z,5.82
2023-10-25T10:43:10.095Z,6.45
2023-10-25T10:45:36.446Z,5.28
2023-10-25T10:48:13.078Z,5.88
2023-10-25T10:50:40.926Z,4.57
2023-10-25T10:53:07.594Z,4.55
2023-10-25T10:55:34.142Z,4.65
2023-10-25T10:58:07.997Z,4.20
2023-10-25T11:00:35.835Z,5.00
2023-10-25T11:03:04.673Z,5.20
2023-10-25T11:05:33.485Z,4.50
2023-10-25T11:07:59.877Z,4.75
2023-10-25T11:10:26.456Z,4.97
2023-10-25T11:12:52.997Z,5.38
2023-10-25T11:15:20.320Z,7.78
2023-10-25T11:17:46.747Z,5.72
2023-10-25T11:20:13.153Z,4.28
2023-10-25T11:22:39.571Z,4.75
2023-10-25T11:25:10.203Z,4.65
2023-10-25T11:27:37.047Z,4.38
2023-10-25T11:30:05.503Z,4.97
2023-10-25T11:32:37.584Z,4.10
2023-10-25T11:35:04.219Z,4.03
2023-10-25T11:37:43.662Z,3.85
2023-10-25T11:40:10.501Z,4.43
2023-10-25T11:42:36.862Z,4.15
2023-10-25T11:45:04.891Z,4.50
2023-10-25T11:47:32.432Z,4.82
2023-10-25T11:50:00.282Z,4.20
2023-10-25T11:52:28.406Z,4.20
2023-10-25T11:54:55.572Z,3.85
2023-10-25T11:57:26.246Z,4.47
2023-10-25T11:59:52.898Z,4.18
2023-10-25T12:02:24.770Z,4.47
2023-10-25T12:04:55.308Z,5.45
2023-10-25T12:07:22.810Z,5.22
2023-10-25T12:09:50.765Z,4.77
2023-10-25T12:12:18.284Z,4.68
2023-10-25T12:14:45.066Z,4.60
2023-10-25T12:17:11.996Z,5.00
2023-10-25T12:19:39.236Z,4.53
2023-10-25T12:22:07.175Z,4.65
2023-10-25T12:24:33.793Z,4.70
2023-10-25T12:27:04.177Z,4.38
2023-10-25T12:29:31.419Z,4.32
2023-10-25T12:31:58.322Z,4.32
2023-10-25T12:34:24.764Z,4.95
2023-10-25T12:36:54.040Z,4.60
2023-10-25T12:39:20.805Z,5.15
2023-10-25T12:41:47.688Z,4.68
2023-10-25T12:44:14.706Z,4.70
2023-10-25T12:46:43.143Z,4.38
2023-10-25T12:51:38.976Z,4.68
2023-10-25T12:54:08.014Z,4.70
2023-10-25T12:56:34.754Z,5.15
2023-10-25T12:59:01.371Z,4.53
2023-10-25T13:01:27.939Z,4.70
2023-10-25T13:03:54.345Z,5.45
2023-10-25T13:06:21.444Z,4.88
2023-10-25T13:08:48.014Z,4.60
2023-10-25T13:11:14.586Z,5.60
2023-10-25T13:13:40.963Z,5.30
2023-10-25T13:16:07.660Z,5.68
2023-10-25T13:18:34.163Z,4.93
2023-10-25T13:21:00.769Z,4.80
2023-10-25T13:23:27.289Z,5.40
2023-10-25T13:25:54.400Z,4.85
2023-10-25T13:28:20.944Z,5.35
2023-10-25T13:30:51.129Z,5.05
2023-10-25T13:33:17.537Z,5.45
2023-10-25T13:35:44.054Z,4.82
2023-10-25T13:38:10.523Z,5.40
2023-10-25T13:40:36.953Z,5.10
2023-10-25T13:43:03.596Z,4.47
2023-10-25T13:45:30.503Z,5.00
2023-10-25T13:47:57.217Z,4.70
2023-10-25T13:50:23.751Z,5.18
2023-10-25T13:52:50.201Z,4.70
2023-10-25T13:55:16.587Z,5.50
2023-10-25T13:57:42.967Z,5.28
2023-10-25T14:00:10.012Z,5.38
2023-10-25T14:02:36.563Z,5.43
2023-10-25T14:05:04.490Z,5.07
2023-10-25T14:07:30.892Z,5.57
2023-10-25T14:09:57.233Z,5.05
2023-10-25T14:12:23.678Z,5.60
2023-10-25T14:14:50.181Z,5.38
2023-10-25T14:17:16.564Z,5.40
2023-10-25T14:19:42.947Z,4.97
2023-10-25T14:22:09.508Z,5.05
2023-10-25T14:24:38.255Z,5.35
2023-10-25T14:27:05.325Z,5.18
2023-10-25T14:29:31.832Z,5.53
2023-10-25T14:31:59.571Z,5.70
2023-10-25T14:34:27.110Z,5.22
2023-10-25T14:36:53.520Z,6.18
2023-10-25T14:39:19.917Z,6.65
2023-10-25T14:41:46.349Z,6.13
2023-10-25T14:44:12.760Z,5.93
2023-10-25T14:46:39.216Z,6.05
2023-10-25T14:49:06.172Z,6.05
2023-10-25T14:51:33.585Z,5.18
2023-10-25T14:54:00.028Z,5.82
2023-10-25T14:56:26.519Z,5.70
2023-10-25T14:58:55.977Z,6.22
2023-10-25T15:01:24.686Z,5.63
2023-10-25T15:03:51.233Z,5.10
2023-10-25T15:06:17.613Z,5.95
2023-10-25T15:08:44.007Z,6.10
2023-10-25T15:11:10.618Z,5.85
2023-10-25T15:13:37.001Z,6.40
2023-10-25T15:16:03.831Z,6.50
2023-10-25T15:18:30.883Z,5.90
2023-10-25T15:20:57.423Z,5.25
2023-10-25T15:23:23.881Z,5.57
2023-10-25T15:25:50.283Z,6.13
2023-10-25T15:28:16.683Z,5.40
2023-10-25T15:30:48.173Z,6.22
2023-10-25T15:33:15.020Z,6.10
2023-10-25T15:36:05.399Z,5.68
2023-10-25T15:38:31.962Z,5.95
2023-10-25T15:41:19.566Z,5.00
2023-10-25T15:43:49.560Z,5.72
2023-10-25T15:46:16.965Z,5.68
2023-10-25T15:48:47.982Z,5.20
2023-10-25T15:51:15.533Z,4.55
2023-10-25T15:53:45.643Z,4.80
2023-10-25T15:56:13.521Z,4.88
2023-10-25T15:58:40.719Z,4.78
2023-10-25T16:01:11.691Z,4.97
2023-10-25T16:03:39.914Z,4.88
2023-10-25T16:06:07.874Z,5.10
2023-10-25T16:08:35.969Z,5.18
2023-10-25T16:11:03.057Z,5.30
2023-10-25T16:13:29.411Z,4.85
2023-10-25T16:15:55.818Z,5.05
2023-10-25T16:18:22.881Z,5.53
2023-10-25T16:20:49.601Z,5.40
2023-10-25T16:23:15.991Z,5.38
2023-10-25T16:25:42.636Z,6.35
2023-10-25T16:28:09.108Z,6.40
2023-10-25T16:30:36.859Z,5.40
2023-10-25T16:33:03.373Z,6.43
2023-10-25T16:35:29.803Z,5.85
2023-10-25T16:37:56.234Z,5.82
2023-10-25T16:40:22.697Z,6.35
2023-10-25T16:42:49.392Z,5.70
2023-10-25T16:45:18.303Z,6.22
2023-10-25T16:47:44.740Z,5.80
2023-10-25T16:50:11.178Z,6.93
2023-10-25T16:52:37.560Z,6.72
2023-10-25T16:55:04.793Z,6.15
2023-10-25T16:57:31.272Z,5.68
2023-10-25T16:59:57.747Z,6.90
2023-10-25T17:02:24.177Z,5.70
2023-10-25T17:04:50.605Z,7.38
2023-10-25T17:07:17.040Z,6.60
2023-10-25T17:09:43.462Z,7.07
2023-10-25T17:12:09.893Z,6.53
2023-10-25T17:14:36.298Z,6.85
2023-10-25T17:17:02.756Z,7.00
2023-10-25T17:19:32.250Z,7.30
2023-10-25T17:21:58.697Z,7.20
2023-10-25T17:24:25.342Z,7.07
2023-10-25T17:26:52.133Z,7.30
2023-10-25T17:29:18.576Z,6.93
2023-10-25T17:31:44.956Z,7.97
2023-10-25T17:34:11.368Z,7.43
2023-10-25T17:36:37.750Z,6.32
2023-10-25T17:39:04.456Z,7.13
2023-10-25T17:41:30.950Z,6.63
2023-10-25T17:43:57.317Z,7.80
2023-10-25T17:46:26.616Z,7.47
2023-10-25T17:48:53.110Z,7.45
2023-10-25T17:51:19.516Z,7.35
2023-10-25T17:53:46.041Z,7.43
2023-10-25T17:56:12.528Z,7.22
2023-10-25T17:58:39.078Z,7.75
2023-10-25T18:01:05.843Z,8.15
2023-10-25T18:03:32.682Z,7.18
2023-10-25T18:06:06.618Z,7.50
2023-10-25T18:08:33.089Z,7.45
2023-10-25T18:11:00.196Z,7.93
2023-10-25T18:13:26.688Z,8.50
2023-10-25T18:15:53.137Z,8.10
2023-10-25T18:18:20.799Z,8.73
2023-10-25T18:20:47.605Z,9.13
2023-10-25T18:23:14.163Z,7.93
2023-10-25T18:25:40.816Z,8.32
2023-10-25T18:28:07.272Z,8.40
2023-10-25T18:31:57.441Z,8.77
2023-10-25T18:33:21.007Z,8.27
2023-10-25T18:35:48.036Z,8.07
2023-10-25T18:38:15.660Z,8.45
2023-10-25T18:40:43.954Z,8.73
2023-10-25T18:43:10.440Z,7.60
2023-10-25T18:45:36.940Z,8.30
2023-10-25T18:48:03.539Z,8.40
2023-10-25T18:50:30.067Z,8.85
2023-10-25T18:52:56.476Z,8.48
2023-10-25T18:55:22.870Z,8.52
2023-10-25T18:57:49.314Z,9.00
2023-10-25T19:00:16.113Z,8.95
2023-10-25T19:02:42.629Z,8.57
2023-10-25T19:06:26.254Z,8.25
2023-10-25T19:08:25.499Z,8.40
2023-10-25T19:10:43.403Z,8.40
2023-10-25T19:13:10.077Z,8.23
2023-10-25T19:15:36.470Z,8.73
2023-10-25T19:18:03.673Z,8.60
2023-10-25T19:20:30.567Z,8.65
2023-10-25T19:22:56.978Z,8.25
2023-10-25T19:25:23.511Z,8.85
2023-10-25T19:27:49.961Z,9.05
2023-10-25T19:30:16.476Z,9.43
2023-10-25T19:32:43.219Z,9.30
2023-10-25T19:35:09.690Z,9.48
2023-10-25T19:37:36.081Z,9.02
2023-10-25T19:40:02.518Z,9.25
2023-10-25T19:42:28.917Z,10.40
2023-10-25T19:44:55.439Z,9.75
2023-10-25T19:47:24.379Z,9.23
2023-10-25T19:49:50.796Z,9.50
2023-10-25T19:52:17.131Z,9.07
2023-10-25T19:54:43.875Z,9.60
2023-10-25T19:57:10.433Z,9.30
2023-10-25T19:59:36.776Z,10.45
2023-10-25T20:02:03.353Z,10.00
2023-10-25T20:04:30.043Z,9.93
2023-10-25T20:06:56.521Z,9.63
2023-10-25T20:09:23.271Z,10.63
2023-10-25T20:11:49.710Z,9.73
2023-10-25T20:14:16.345Z,10.18
2023-10-25T20:16:42.740Z,10.25
2023-10-25T20:19:09.101Z,10.50
2023-10-25T20:21:35.703Z,10.57
2023-10-25T20:24:02.226Z,10.25
2023-10-25T20:26:34.314Z,10.00
2023-10-25T20:29:01.164Z,10.85
2023-10-25T20:31:27.759Z,10.52
2023-10-25T20:33:54.194Z,9.50
2023-10-25T20:36:20.731Z,10.57
2023-10-25T20:38:47.527Z,10.10
2023-10-25T20:41:14.197Z,10.43
2023-10-25T20:43:41.311Z,10.30
2023-10-25T20:46:09.367Z,10.65
2023-10-25T20:48:35.860Z,10.30
2023-10-25T20:51:04.396Z,9.60
2023-10-25T20:53:31.354Z,10.27
2023-10-25T20:55:57.880Z,9.65
2023-10-25T20:58:25.162Z,9.55
2023-10-25T21:00:51.546Z,9.52
2023-10-25T21:03:18.104Z,10.13
2023-10-25T21:05:44.702Z,10.13
2023-10-25T21:08:11.158Z,9.93
2023-10-25T21:10:37.551Z,9.90
2023-10-25T21:13:03.951Z,9.27
2023-10-25T21:15:33.129Z,10.13
2023-10-25T21:17:59.595Z,10.32
2023-10-25T21:20:26.132Z,10.13
2023-10-25T21:22:52.569Z,9.85
2023-10-25T21:25:19.013Z,10.35
2023-10-25T21:27:45.471Z,10.10
2023-10-25T21:30:12.013Z,10.50
2023-10-25T21:32:38.647Z,10.55
2023-10-25T21:35:05.265Z,10.93
2023-10-25T21:37:31.680Z,10.88
2023-10-25T21:39:58.068Z,10.35
2023-10-25T21:42:24.488Z,10.57
2023-10-25T21:44:50.836Z,10.32
2023-10-25T21:47:17.316Z,10.82
2023-10-25T21:49:43.728Z,10.65
2023-10-25T21:52:10.248Z,11.00
2023-10-25T21:54:36.719Z,10.68
2023-10-25T21:57:03.394Z,11.23
2023-10-25T21:59:52.831Z,10.85
2023-10-25T22:02:18.241Z,11.07
2023-10-25T22:04:53.182Z,11.20
2023-10-25T22:07:19.981Z,11.07
2023-10-25T22:09:46.649Z,10.63
2023-10-25T22:12:13.028Z,10.02
2023-10-25T22:14:39.384Z,11.32
2023-10-25T22:17:05.865Z,10.68
2023-10-25T22:19:32.270Z,10.65
2023-10-25T22:21:58.684Z,11.38
2023-10-25T22:24:25.075Z,11.73
2023-10-25T22:26:52.435Z,11.45
2023-10-25T22:29:18.871Z,11.55
2023-10-25T22:31:45.661Z,10.95
2023-10-25T22:34:12.271Z,11.82
2023-10-25T22:36:38.755Z,11.90
2023-10-25T22:39:05.429Z,11.60
2023-10-25T22:41:31.802Z,11.50
2023-10-25T22:43:58.298Z,12.60
2023-10-25T22:46:24.777Z,12.32
2023-10-25T22:48:51.206Z,12.68
2023-10-25T22:51:17.738Z,12.82
2023-10-25T22:53:44.261Z,12.20
2023-10-25T22:56:10.724Z,11.40
2023-10-25T22:58:37.087Z,12.98
2023-10-25T23:01:06.331Z,11.75
2023-10-25T23:03:32.937Z,12.52
2023-10-25T23:05:59.392Z,11.98
2023-10-25T23:08:25.888Z,11.30
2023-10-25T23:10:52.272Z,12.65
2023-10-25T23:13:18.653Z,12.70
2023-10-25T23:15:45.073Z,12.60
2023-10-25T23:18:11.523Z,12.45
2023-10-25T23:20:38.143Z,12.43
2023-10-25T23:23:04.502Z,11.90
2023-10-25T23:25:30.927Z,12.45
2023-10-25T23:27:57.397Z,11.85
2023-10-25T23:30:23.807Z,11.93
2023-10-25T23:32:50.308Z,12.32
2023-10-25T23:35:16.992Z,11.75
2023-10-25T23:37:43.454Z,11.63
2023-10-25T23:40:10.393Z,11.27
2023-10-25T23:42:36.876Z,11.25
2023-10-25T23:45:03.605Z,11.68
2023-10-25T23:47:30.104Z,11.90
2023-10-25T23:49:56.512Z,11.68
2023-10-25T23:52:23.180Z,11.55
2023-10-25T23:54:55.680Z,11.57
2023-10-25T23:57:22.896Z,11.40
2023-10-25T23:59:49.549Z,11.77
